Terminal Aerodrome Forecast
Issued by NWS Wilmington, OH

Current Version | Previous Version | Graphics & Text | Print | Product List | Glossary On
Versions: 1 2 3 4 5 6 7 8 9 10 11 12 13 14 15 16 17 18 19 20
000
FTUS41 KILN 130100 AAA
TAFILN
TAF AMD
KILN 130109Z 1301/1324 06004KT P6SM OVC030
     FM130800 02004KT P6SM OVC022
     FM131400 30013KT P6SM SCT020 SCT100
     FM132300 34009KT P6SM SKC=

USA.gov is the U.S. government's official web portal to all federal, state and local government web resources and services.